地図

経路データ

SID SEASON NUMBER BASIN SUBBASIN NAME ISO_TIME NATURE LAT LON WMO_WIND WMO_PRES WMO_AGENCY TRACK_TYPE DIST2LAND LANDFALL IFLAG USA_AGENCY USA_ATCF_ID USA_LAT USA_LON USA_RECORD USA_STATUS USA_WIND USA_PRES USA_SSHS USA_R34_NE USA_R34_SE USA_R34_SW USA_R34_NW USA_R50_NE USA_R50_SE USA_R50_SW USA_R50_NW USA_R64_NE USA_R64_SE USA_R64_SW USA_R64_NW USA_POCI USA_ROCI USA_RMW USA_EYE TOKYO_LAT TOKYO_LON TOKYO_GRADE TOKYO_WIND TOKYO_PRES TOKYO_R50_DIR TOKYO_R50_LONG TOKYO_R50_SHORT TOKYO_R30_DIR TOKYO_R30_LONG TOKYO_R30_SHORT TOKYO_LAND CMA_LAT CMA_LON CMA_CAT CMA_WIND CMA_PRES HKO_LAT HKO_LON HKO_CAT HKO_WIND HKO_PRES NEWDELHI_LAT NEWDELHI_LON NEWDELHI_GRADE NEWDELHI_WIND NEWDELHI_PRES NEWDELHI_CI NEWDELHI_DP NEWDELHI_POCI REUNION_LAT REUNION_LON REUNION_TYPE REUNION_WIND REUNION_PRES REUNION_TNUM REUNION_CI REUNION_RMW REUNION_R34_NE REUNION_R34_SE REUNION_R34_SW REUNION_R34_NW REUNION_R50_NE REUNION_R50_SE REUNION_R50_SW REUNION_R50_NW REUNION_R64_NE REUNION_R64_SE REUNION_R64_SW REUNION_R64_NW BOM_LAT BOM_LON BOM_TYPE BOM_WIND BOM_PRES BOM_TNUM BOM_CI BOM_RMW BOM_R34_NE BOM_R34_SE BOM_R34_SW BOM_R34_NW BOM_R50_NE BOM_R50_SE BOM_R50_SW BOM_R50_NW BOM_R64_NE BOM_R64_SE BOM_R64_SW BOM_R64_NW BOM_ROCI BOM_POCI BOM_EYE BOM_POS_METHOD BOM_PRES_METHOD NADI_LAT NADI_LON NADI_CAT NADI_WIND NADI_PRES WELLINGTON_LAT WELLINGTON_LON WELLINGTON_WIND WELLINGTON_PRES DS824_LAT DS824_LON DS824_STAGE DS824_WIND DS824_PRES TD9636_LAT TD9636_LON TD9636_STAGE TD9636_WIND TD9636_PRES TD9635_LAT TD9635_LON TD9635_WIND TD9635_PRES TD9635_ROCI NEUMANN_LAT NEUMANN_LON NEUMANN_CLASS NEUMANN_WIND NEUMANN_PRES MLC_LAT MLC_LON MLC_CLASS MLC_WIND MLC_PRES USA_GUST BOM_GUST BOM_GUST_PER REUNION_GUST REUNION_GUST_PER USA_SEAHGT USA_SEARAD_NE USA_SEARAD_SE USA_SEARAD_SW USA_SEARAD_NW STORM_SPEED STORM_DIR
1907068S16061 1907 14 SI MM NOT_NAMED 1907-03-09 00:00:00 TS -15.6000 61.1000 main 618 591 _________O____ -1 -15.6000 61.1000 TC 7 253
1907068S16061 1907 14 SI MM NOT_NAMED 1907-03-09 03:00:00 TS -15.7001 60.7501 main 591 559 _________P____ -1 -15.7001 60.7501 TC 7 253
1907068S16061 1907 14 SI MM NOT_NAMED 1907-03-09 06:00:00 TS -15.8000 60.4000 main 559 534 _________O____ -1 -15.8000 60.4000 TC 7 253
1907068S16061 1907 14 SI MM NOT_NAMED 1907-03-09 09:00:00 TS -15.8999 60.0500 main 529 505 _________P____ -1 -15.8999 60.0500 TC 7 253
1907068S16061 1907 14 SI MM NOT_NAMED 1907-03-09 12:00:00 TS -16.0000 59.7000 main 505 482 _________O____ -1 -16.0000 59.7000 TC 7 253
1907068S16061 1907 14 SI MM NOT_NAMED 1907-03-09 15:00:00 TS -16.0999 59.3500 main 478 457 _________P____ -1 -16.0999 59.3500 TC 7 253
1907068S16061 1907 14 SI MM NOT_NAMED 1907-03-09 18:00:00 TS -16.2000 59.0000 main 457 438 _________O____ -1 -16.2000 59.0000 TC 7 254
1907068S16061 1907 14 SI MM NOT_NAMED 1907-03-09 21:00:00 TS -16.2848 58.6723 main 438 418 _________P____ -1 -16.2848 58.6723 TC 7 253
1907068S16061 1907 14 SI MM NOT_NAMED 1907-03-10 00:00:00 TS -16.4000 58.3000 main 418 392 _________O____ -1 -16.4000 58.3000 TC 9 250
1907068S16061 1907 14 SI MM NOT_NAMED 1907-03-10 03:00:00 TS -16.5850 57.8225 main 391 369 _________P____ -1 -16.5850 57.8225 TC 10 247
1907068S16061 1907 14 SI MM NOT_NAMED 1907-03-10 06:00:00 TS -16.8000 57.3000 main 369 352 _________O____ -1 -16.8000 57.3000 TC 11 247
1907068S16061 1907 14 SI MM NOT_NAMED 1907-03-10 09:00:00 TS -17.0074 56.8000 main 354 344 _________P____ -1 -17.0074 56.8000 TC 10 247
1907068S16061 1907 14 SI MM NOT_NAMED 1907-03-10 12:00:00 TS -17.2000 56.3000 main 348 346 _________O____ -1 -17.2000 56.3000 TC 10 250
1907068S16061 1907 14 SI MM NOT_NAMED 1907-03-10 15:00:00 TS -17.3499 55.7998 main 360 351 _________P____ -1 -17.3499 55.7998 TC 10 253
1907068S16061 1907 14 SI MM NOT_NAMED 1907-03-10 18:00:00 TS -17.5000 55.3000 main 371 369 _________O____ -1 -17.5000 55.3000 TC 10 250
1907068S16061 1907 14 SI MM NOT_NAMED 1907-03-10 21:00:00 TS -17.6999 54.7925 main 372 359 _________P____ -1 -17.6999 54.7925 TC 10 247
1907068S16061 1907 14 SI MM NOT_NAMED 1907-03-11 00:00:00 TS -17.9000 54.3000 main 362 358 _________O____ -1 -17.9000 54.3000 TC 10 249
1907068S16061 1907 14 SI MM NOT_NAMED 1907-03-11 03:00:00 TS -18.0574 53.8349 main 360 360 _________P____ -1 -18.0574 53.8349 TC 9 251
1907068S16061 1907 14 SI MM NOT_NAMED 1907-03-11 06:00:00 TS -18.2000 53.4000 main 371 371 _________O____ -1 -18.2000 53.4000 TC 8 250
1907068S16061 1907 14 SI MM NOT_NAMED 1907-03-11 09:00:00 TS -18.3498 52.9999 main 376 339 _________P____ -1 -18.3498 52.9999 TC 8 248
1907068S16061 1907 14 SI MM NOT_NAMED 1907-03-11 12:00:00 TS -18.5000 52.6000 main 339 298 _________O____ -1 -18.5000 52.6000 TC 9 250
1907068S16061 1907 14 SI MM NOT_NAMED 1907-03-11 15:00:00 TS -18.6424 52.1574 main 298 251 _________P____ -1 -18.6424 52.1574 TC 9 251
1907068S16061 1907 14 SI MM NOT_NAMED 1907-03-11 18:00:00 TS -18.8000 51.7000 main 251 219 _________O____ -1 -18.8000 51.7000 TC 10 248
1907068S16061 1907 14 SI MM NOT_NAMED 1907-03-11 21:00:00 TS -19.0000 51.2276 main 209 177 _________P____ -1 -19.0000 51.2276 TC 9 245
1907068S16061 1907 14 SI MM NOT_NAMED 1907-03-12 00:00:00 TS -19.2000 50.8000 main 177 150 _________O____ -1 -19.2000 50.8000 TC 8 244
1907068S16061 1907 14 SI MM NOT_NAMED 1907-03-12 03:00:00 TS -19.3499 50.4698 main 150 128 _________P____ -1 -19.3499 50.4698 TC 6 242
1907068S16061 1907 14 SI MM NOT_NAMED 1907-03-12 06:00:00 TS -19.5000 50.2000 main 128 114 _________O____ -1 -19.5000 50.2000 TC 6 234
1907068S16061 1907 14 SI MM NOT_NAMED 1907-03-12 09:00:00 TS -19.7074 49.9500 main 118 94 _________P____ -1 -19.7074 49.9500 TC 6 230
1907068S16061 1907 14 SI MM NOT_NAMED 1907-03-12 12:00:00 TS -19.9000 49.7000 main 94 62 _________O____ -1 -19.9000 49.7000 TC 6 240
1907068S16061 1907 14 SI MM NOT_NAMED 1907-03-12 15:00:00 TS -20.0075 49.4074 main 62 33 _________P____ -1 -20.0075 49.4074 TC 6 250
1907068S16061 1907 14 SI MM NOT_NAMED 1907-03-12 18:00:00 TS -20.1000 49.1000 main 33 10 _________O____ -1 -20.1000 49.1000 TC 6 248
1907068S16061 1907 14 SI MM NOT_NAMED 1907-03-12 21:00:00 TS -20.2425 48.7925 main 10 0 _________P____ -1 -20.2425 48.7925 TC 6 242
1907068S16061 1907 14 SI MM NOT_NAMED 1907-03-13 00:00:00 TS -20.4000 48.5000 main 0 0 _________O____ -1 -20.4000 48.5000 TC 6 239
1907068S16061 1907 14 SI MM NOT_NAMED 1907-03-13 03:00:00 TS -20.5499 48.2424 main 0 0 _________P____ -1 -20.5499 48.2424 TC 6 237
1907068S16061 1907 14 SI MM NOT_NAMED 1907-03-13 06:00:00 TS -20.7000 48.0000 main 0 0 _________O____ -1 -20.7000 48.0000 TC 6 237
1907068S16061 1907 14 SI MM NOT_NAMED 1907-03-13 09:00:00 TS -20.8500 47.7425 main 0 0 _________P____ -1 -20.8500 47.7425 TC 6 237
1907068S16061 1907 14 SI MM NOT_NAMED 1907-03-13 12:00:00 TS -21.0000 47.5000 main 0 0 _________O____ -1 -21.0000 47.5000 TC 5 235
1907068S16061 1907 14 SI MM NOT_NAMED 1907-03-13 15:00:00 TS -21.1424 47.2924 main 0 0 _________P____ -1 -21.1424 47.2924 TC 5 231
1907068S16061 1907 14 SI MM NOT_NAMED 1907-03-13 18:00:00 TS -21.3000 47.1000 main 0 0 _________O____ -1 -21.3000 47.1000 TC 5 227
1907068S16061 1907 14 SI MM NOT_NAMED 1907-03-13 21:00:00 TS -21.5075 46.8776 main 0 0 _________P____ -1 -21.5075 46.8776 TC 5 223
1907068S16061 1907 14 SI MM NOT_NAMED 1907-03-14 00:00:00 TS -21.7000 46.7000 main 0 0 _________O____ -1 -21.7000 46.7000 TC 4 217
1907068S16061 1907 14 SI MM NOT_NAMED 1907-03-14 03:00:00 TS -21.8150 46.6274 main 0 0 _________P____ -1 -21.8150 46.6274 TC 2 207
1907068S16061 1907 14 SI MM NOT_NAMED 1907-03-14 06:00:00 TS -21.9000 46.6000 main 0 0 _________O____ -1 -21.9000 46.6000 TC 2 206
1907068S16061 1907 14 SI MM NOT_NAMED 1907-03-14 09:00:00 TS -22.0000 46.5350 main 0 0 _________P____ -1 -22.0000 46.5350 TC 2 205
1907068S16061 1907 14 SI MM NOT_NAMED 1907-03-14 12:00:00 TS -22.1000 46.5000 main 0 0 _________O____ -1 -22.1000 46.5000 TC 2 188
1907068S16061 1907 14 SI MM NOT_NAMED 1907-03-14 15:00:00 TS -22.2000 46.5350 main 0 0 _________P____ -1 -22.2000 46.5350 TC 2 155
1907068S16061 1907 14 SI MM NOT_NAMED 1907-03-14 18:00:00 TS -22.3000 46.6000 main 0 0 _________O____ -1 -22.3000 46.6000 TC 2 153
1907068S16061 1907 14 SI MM NOT_NAMED 1907-03-14 21:00:00 TS -22.3925 46.6425 main 0 0 _________P____ -1 -22.3925 46.6425 TC 2 155
1907068S16061 1907 14 SI MM NOT_NAMED 1907-03-15 00:00:00 TS -22.5000 46.7000 main 0 0 _________O____ -1 -22.5000 46.7000 TC 3 152
1907068S16061 1907 14 SI MM NOT_NAMED 1907-03-15 03:00:00 TS -22.6425 46.7850 main 0 0 _________P____ -1 -22.6425 46.7850 TC 4 149
1907068S16061 1907 14 SI MM NOT_NAMED 1907-03-15 06:00:00 TS -22.8000 46.9000 main 0 0 _________O____ -1 -22.8000 46.9000 TC 4 143
1907068S16061 1907 14 SI MM NOT_NAMED 1907-03-15 09:00:00 TS -22.9575 47.0425 main 0 0 _________P____ -1 -22.9575 47.0425 TC 4 137
1907068S16061 1907 14 SI MM NOT_NAMED 1907-03-15 12:00:00 TS -23.1000 47.2000 main 0 0 _________O____ -1 -23.1000 47.2000 TC 4 131
1907068S16061 1907 14 SI MM NOT_NAMED 1907-03-15 15:00:00 TS -23.2075 47.3500 main 0 0 _________P____ -1 -23.2075 47.3500 TC 3 126
1907068S16061 1907 14 SI MM NOT_NAMED 1907-03-15 18:00:00 TS -23.3000 47.5000 main 0 0 _________O____ -1 -23.3000 47.5000 TC 3 125
1907068S16061 1907 14 SI MM NOT_NAMED 1907-03-15 21:00:00 TS -23.3975 47.6499 main 0 0 _________P____ -1 -23.3975 47.6499 TC 3 126
1907068S16061 1907 14 SI MM NOT_NAMED 1907-03-16 00:00:00 TS -23.5000 47.8000 main 15 _________O____ -1 -23.5000 47.8000 TC 3 126

IBTrACS Databaseについて

本データベースは、米国NOAAが公開する1842年以降の世界の熱帯低気圧のベストトラックデータアーカイブInternational Best Track Archive for Climate Stewardship (IBTrACS)を、ウェブで閲覧しやすい形式に変換したものです。

最終更新日:2021-10-08